sensor_id;sensor_type;location;lat;lon;timestamp;pressure;altitude;pressure_sealevel;temperature;humidity
54850;BME280;47660;51.334;12.396;2023-05-08T00:01:45;100996.50;;;16.36;52.25
54850;BME280;47660;51.334;12.396;2023-05-08T00:04:11;100992.19;;;16.22;52.76
54850;BME280;47660;51.334;12.396;2023-05-08T00:06:36;100998.34;;;15.75;53.67
54850;BME280;47660;51.334;12.396;2023-05-08T00:09:01;100985.41;;;16.41;52.75
54850;BME280;47660;51.334;12.396;2023-05-08T00:11:27;100987.75;;;15.98;53.42
54850;BME280;47660;51.334;12.396;2023-05-08T00:13:52;100995.53;;;15.90;53.71
54850;BME280;47660;51.334;12.396;2023-05-08T00:16:18;100984.25;;;16.09;53.30
54850;BME280;47660;51.334;12.396;2023-05-08T00:18:43;100994.25;;;15.83;53.90
54850;BME280;47660;51.334;12.396;2023-05-08T00:21:09;100985.41;;;16.41;52.27
54850;BME280;47660;51.334;12.396;2023-05-08T00:23:34;100988.78;;;15.84;53.28
54850;BME280;47660;51.334;12.396;2023-05-08T00:25:59;100991.13;;;16.47;52.01
54850;BME280;47660;51.334;12.396;2023-05-08T00:28:25;100988.59;;;16.57;51.86
54850;BME280;47660;51.334;12.396;2023-05-08T00:30:51;100991.78;;;16.04;52.97
54850;BME280;47660;51.334;12.396;2023-05-08T00:33:16;100991.50;;;15.96;53.79
54850;BME280;47660;51.334;12.396;2023-05-08T00:35:42;100994.38;;;16.17;52.82
54850;BME280;47660;51.334;12.396;2023-05-08T00:38:10;100985.41;;;16.63;51.71
54850;BME280;47660;51.334;12.396;2023-05-08T00:40:35;100985.41;;;15.94;53.42
54850;BME280;47660;51.334;12.396;2023-05-08T00:43:02;100982.97;;;16.49;53.17
54850;BME280;47660;51.334;12.396;2023-05-08T00:45:33;100994.72;;;16.12;53.96
54850;BME280;47660;51.334;12.396;2023-05-08T00:48:00;100993.56;;;16.51;52.98
54850;BME280;47660;51.334;12.396;2023-05-08T00:50:28;100989.09;;;16.51;52.39
54850;BME280;47660;51.334;12.396;2023-05-08T00:52:57;100976.28;;;16.77;52.36
54850;BME280;47660;51.334;12.396;2023-05-08T00:55:25;100975.16;;;16.34;52.40
54850;BME280;47660;51.334;12.396;2023-05-08T00:57:51;100977.56;;;16.26;52.27
54850;BME280;47660;51.334;12.396;2023-05-08T01:00:17;100975.63;;;16.28;53.40
54850;BME280;47660;51.334;12.396;2023-05-08T01:02:43;100986.31;;;16.06;53.62
54850;BME280;47660;51.334;12.396;2023-05-08T01:05:10;100984.53;;;16.40;52.75
54850;BME280;47660;51.334;12.396;2023-05-08T01:07:38;100988.44;;;16.47;53.53
54850;BME280;47660;51.334;12.396;2023-05-08T01:10:07;100997.84;;;15.95;54.62
54850;BME280;47660;51.334;12.396;2023-05-08T01:15:13;100986.03;;;16.67;53.03
54850;BME280;47660;51.334;12.396;2023-05-08T01:18:13;100993.97;;;16.57;52.96
54850;BME280;47660;51.334;12.396;2023-05-08T01:20:52;100984.56;;;16.74;52.72
54850;BME280;47660;51.334;12.396;2023-05-08T01:32:18;101002.38;;;16.87;52.50
54850;BME280;47660;51.334;12.396;2023-05-08T01:37:36;101009.25;;;16.21;54.16
54850;BME280;47660;51.334;12.396;2023-05-08T01:40:15;101013.06;;;16.30;53.76
54850;BME280;47660;51.334;12.396;2023-05-08T01:42:56;101007.22;;;16.25;53.40
54850;BME280;47660;51.334;12.396;2023-05-08T01:45:30;101005.22;;;16.15;54.28
54850;BME280;47660;51.334;12.396;2023-05-08T01:48:41;100993.06;;;16.45;53.32
54850;BME280;47660;51.334;12.396;2023-05-08T01:51:09;101010.59;;;16.15;54.32
54850;BME280;47660;51.334;12.396;2023-05-08T01:53:48;101008.22;;;16.58;53.31
54850;BME280;47660;51.334;12.396;2023-05-08T01:56:19;101006.94;;;16.16;54.37
54850;BME280;47660;51.334;12.396;2023-05-08T01:58:48;101011.81;;;15.63;55.50
54850;BME280;47660;51.334;12.396;2023-05-08T02:01:17;101010.09;;;15.86;55.26
54850;BME280;47660;51.334;12.396;2023-05-08T02:03:47;101010.75;;;15.41;55.77
54850;BME280;47660;51.334;12.396;2023-05-08T02:06:14;101003.72;;;15.75;55.17
54850;BME280;47660;51.334;12.396;2023-05-08T02:08:43;101013.19;;;15.93;55.04
54850;BME280;47660;51.334;12.396;2023-05-08T02:11:11;101012.38;;;15.79;55.17
54850;BME280;47660;51.334;12.396;2023-05-08T02:13:38;101017.72;;;15.30;56.18
54850;BME280;47660;51.334;12.396;2023-05-08T02:16:07;101008.22;;;15.75;55.63
54850;BME280;47660;51.334;12.396;2023-05-08T02:18:39;101008.59;;;15.82;55.39
54850;BME280;47660;51.334;12.396;2023-05-08T02:21:11;101003.41;;;15.67;55.51
54850;BME280;47660;51.334;12.396;2023-05-08T02:23:37;101009.75;;;15.05;56.24
54850;BME280;47660;51.334;12.396;2023-05-08T02:26:06;101016.28;;;15.00;56.90
54850;BME280;47660;51.334;12.396;2023-05-08T02:28:32;101014.56;;;15.12;55.82
54850;BME280;47660;51.334;12.396;2023-05-08T02:30:59;101022.13;;;15.32;55.64
54850;BME280;47660;51.334;12.396;2023-05-08T02:33:26;101015.69;;;15.58;55.14
54850;BME280;47660;51.334;12.396;2023-05-08T02:35:54;101014.09;;;15.80;55.33
54850;BME280;47660;51.334;12.396;2023-05-08T02:38:21;101020.94;;;15.36;55.73
54850;BME280;47660;51.334;12.396;2023-05-08T02:40:51;101023.72;;;15.58;55.64
54850;BME280;47660;51.334;12.396;2023-05-08T02:43:19;101019.88;;;15.25;54.86
54850;BME280;47660;51.334;12.396;2023-05-08T02:45:49;101022.56;;;15.87;54.91
54850;BME280;47660;51.334;12.396;2023-05-08T02:48:32;101021.78;;;15.85;54.76
54850;BME280;47660;51.334;12.396;2023-05-08T02:51:09;101018.25;;;15.84;54.91
54850;BME280;47660;51.334;12.396;2023-05-08T02:53:42;101019.03;;;15.73;55.05
54850;BME280;47660;51.334;12.396;2023-05-08T02:56:19;101024.19;;;15.77;55.07
54850;BME280;47660;51.334;12.396;2023-05-08T02:58:56;101014.84;;;15.58;55.22
54850;BME280;47660;51.334;12.396;2023-05-08T03:01:27;101019.94;;;15.12;57.13
54850;BME280;47660;51.334;12.396;2023-05-08T03:04:06;101015.81;;;15.57;55.12
54850;BME280;47660;51.334;12.396;2023-05-08T03:06:38;101017.47;;;15.71;55.16
54850;BME280;47660;51.334;12.396;2023-05-08T03:09:14;101022.13;;;15.32;55.92
54850;BME280;47660;51.334;12.396;2023-05-08T03:11:43;101023.09;;;15.79;54.18
54850;BME280;47660;51.334;12.396;2023-05-08T03:14:10;101021.59;;;15.26;56.58
54850;BME280;47660;51.334;12.396;2023-05-08T03:16:38;101022.88;;;15.34;56.47
54850;BME280;47660;51.334;12.396;2023-05-08T03:19:30;101012.25;;;15.56;55.16
54850;BME280;47660;51.334;12.396;2023-05-08T03:21:59;101029.41;;;15.29;56.39
54850;BME280;47660;51.334;12.396;2023-05-08T03:24:26;101027.41;;;15.20;56.35
54850;BME280;47660;51.334;12.396;2023-05-08T03:26:55;101026.97;;;15.51;55.71
54850;BME280;47660;51.334;12.396;2023-05-08T03:29:22;101026.56;;;15.07;56.71
54850;BME280;47660;51.334;12.396;2023-05-08T03:31:50;101032.06;;;14.79;57.46
54850;BME280;47660;51.334;12.396;2023-05-08T03:34:16;101029.03;;;15.10;55.83
54850;BME280;47660;51.334;12.396;2023-05-08T03:36:43;101027.22;;;14.97;56.22
54850;BME280;47660;51.334;12.396;2023-05-08T03:39:10;101030.56;;;14.88;56.23
54850;BME280;47660;51.334;12.396;2023-05-08T03:41:36;101019.75;;;14.90;56.26
54850;BME280;47660;51.334;12.396;2023-05-08T03:44:02;101019.72;;;15.15;55.47
54850;BME280;47660;51.334;12.396;2023-05-08T03:46:32;101024.19;;;15.15;55.98
54850;BME280;47660;51.334;12.396;2023-05-08T03:49:03;101020.88;;;15.49;55.94
54850;BME280;47660;51.334;12.396;2023-05-08T03:51:28;101021.47;;;14.78;56.46
54850;BME280;47660;51.334;12.396;2023-05-08T03:53:55;101023.81;;;14.44;57.14
54850;BME280;47660;51.334;12.396;2023-05-08T03:56:23;101026.06;;;14.89;56.09
54850;BME280;47660;51.334;12.396;2023-05-08T04:01:43;101024.81;;;15.32;55.74
54850;BME280;47660;51.334;12.396;2023-05-08T04:04:29;101028.28;;;15.69;55.71
54850;BME280;47660;51.334;12.396;2023-05-08T04:07:08;101026.00;;;15.76;55.20
54850;BME280;47660;51.334;12.396;2023-05-08T04:09:38;101025.72;;;15.43;56.01
54850;BME280;47660;51.334;12.396;2023-05-08T04:12:24;101033.94;;;15.78;54.90
54850;BME280;47660;51.334;12.396;2023-05-08T04:15:18;101031.19;;;15.66;55.18
54850;BME280;47660;51.334;12.396;2023-05-08T04:17:48;101032.63;;;15.35;56.76
54850;BME280;47660;51.334;12.396;2023-05-08T04:20:19;101031.97;;;15.31;56.82
54850;BME280;47660;51.334;12.396;2023-05-08T04:22:46;101043.13;;;15.62;55.74
54850;BME280;47660;51.334;12.396;2023-05-08T04:25:16;101041.69;;;15.69;55.40
54850;BME280;47660;51.334;12.396;2023-05-08T04:27:46;101048.44;;;15.99;55.17
54850;BME280;47660;51.334;12.396;2023-05-08T04:30:12;101048.03;;;15.31;55.28
54850;BME280;47660;51.334;12.396;2023-05-08T04:32:38;101041.22;;;15.51;54.95
54850;BME280;47660;51.334;12.396;2023-05-08T04:35:04;101046.16;;;15.20;56.12
54850;BME280;47660;51.334;12.396;2023-05-08T04:37:30;101052.13;;;15.24;55.95
54850;BME280;47660;51.334;12.396;2023-05-08T04:39:56;101049.00;;;15.30;55.50
54850;BME280;47660;51.334;12.396;2023-05-08T04:42:22;101055.69;;;15.11;56.12
54850;BME280;47660;51.334;12.396;2023-05-08T04:44:48;101064.09;;;15.68;55.11
54850;BME280;47660;51.334;12.396;2023-05-08T04:47:14;101055.81;;;15.47;55.54
54850;BME280;47660;51.334;12.396;2023-05-08T04:49:40;101062.56;;;15.53;54.55
54850;BME280;47660;51.334;12.396;2023-05-08T04:52:05;101066.00;;;15.79;53.79
54850;BME280;47660;51.334;12.396;2023-05-08T04:54:33;101074.25;;;15.76;54.55
54850;BME280;47660;51.334;12.396;2023-05-08T04:57:02;101066.63;;;16.07;53.61
54850;BME280;47660;51.334;12.396;2023-05-08T04:59:30;101065.03;;;16.99;52.54
54850;BME280;47660;51.334;12.396;2023-05-08T05:01:55;101070.78;;;16.11;53.78
54850;BME280;47660;51.334;12.396;2023-05-08T05:04:21;101071.69;;;15.37;55.67
54850;BME280;47660;51.334;12.396;2023-05-08T05:06:49;101073.25;;;16.14;53.44
54850;BME280;47660;51.334;12.396;2023-05-08T05:09:15;101075.84;;;15.79;54.14
54850;BME280;47660;51.334;12.396;2023-05-08T05:11:40;101069.94;;;16.58;52.25
54850;BME280;47660;51.334;12.396;2023-05-08T05:14:08;101073.34;;;16.48;52.69
54850;BME280;47660;51.334;12.396;2023-05-08T05:16:34;101076.75;;;16.03;53.74
54850;BME280;47660;51.334;12.396;2023-05-08T05:19:02;101078.66;;;16.84;51.99
54850;BME280;47660;51.334;12.396;2023-05-08T05:21:27;101087.91;;;15.23;55.20
54850;BME280;47660;51.334;12.396;2023-05-08T05:23:55;101084.22;;;15.87;53.76
54850;BME280;47660;51.334;12.396;2023-05-08T05:26:20;101077.34;;;15.83;54.13
54850;BME280;47660;51.334;12.396;2023-05-08T05:28:48;101075.72;;;16.76;51.94
54850;BME280;47660;51.334;12.396;2023-05-08T05:31:16;101073.75;;;16.78;52.74
54850;BME280;47660;51.334;12.396;2023-05-08T05:33:42;101080.31;;;16.51;52.25
54850;BME280;47660;51.334;12.396;2023-05-08T05:36:07;101074.00;;;16.75;51.66
54850;BME280;47660;51.334;12.396;2023-05-08T05:38:35;101071.25;;;16.99;52.48
54850;BME280;47660;51.334;12.396;2023-05-08T05:41:02;101072.94;;;16.30;53.39
54850;BME280;47660;51.334;12.396;2023-05-08T05:43:28;101080.41;;;17.19;51.11
54850;BME280;47660;51.334;12.396;2023-05-08T05:46:02;101073.34;;;16.48;51.98
54850;BME280;47660;51.334;12.396;2023-05-08T05:48:29;101075.88;;;16.97;50.46
54850;BME280;47660;51.334;12.396;2023-05-08T05:50:57;101072.31;;;16.85;50.46
54850;BME280;47660;51.334;12.396;2023-05-08T05:53:25;101072.16;;;16.87;51.86
54850;BME280;47660;51.334;12.396;2023-05-08T05:55:51;101082.38;;;17.06;50.70
54850;BME280;47660;51.334;12.396;2023-05-08T05:58:19;101085.53;;;17.22;51.30
54850;BME280;47660;51.334;12.396;2023-05-08T06:00:45;101080.53;;;17.29;50.55
54850;BME280;47660;51.334;12.396;2023-05-08T06:03:12;101084.81;;;17.09;50.32
54850;BME280;47660;51.334;12.396;2023-05-08T06:05:38;101074.38;;;17.38;50.09
54850;BME280;47660;51.334;12.396;2023-05-08T06:08:06;101072.47;;;17.29;49.71
54850;BME280;47660;51.334;12.396;2023-05-08T06:10:34;101081.38;;;17.85;49.57
54850;BME280;47660;51.334;12.396;2023-05-08T06:13:03;101083.31;;;17.83;49.31
54850;BME280;47660;51.334;12.396;2023-05-08T06:15:35;101070.31;;;18.75;47.60
54850;BME280;47660;51.334;12.396;2023-05-08T06:18:00;101075.13;;;17.96;48.26
54850;BME280;47660;51.334;12.396;2023-05-08T06:20:26;101079.16;;;17.58;48.88
54850;BME280;47660;51.334;12.396;2023-05-08T06:22:51;101078.19;;;17.25;50.20
54850;BME280;47660;51.334;12.396;2023-05-08T06:25:17;101086.16;;;17.15;49.97
54850;BME280;47660;51.334;12.396;2023-05-08T06:27:44;101087.97;;;17.26;49.56
54850;BME280;47660;51.334;12.396;2023-05-08T06:30:13;101084.78;;;17.87;49.64
54850;BME280;47660;51.334;12.396;2023-05-08T06:32:38;101082.16;;;18.08;47.93
54850;BME280;47660;51.334;12.396;2023-05-08T06:35:06;101091.72;;;17.57;49.03
54850;BME280;47660;51.334;12.396;2023-05-08T06:37:36;101080.81;;;18.14;47.82
54850;BME280;47660;51.334;12.396;2023-05-08T06:40:02;101092.09;;;17.52;49.20
54850;BME280;47660;51.334;12.396;2023-05-08T06:42:30;101080.22;;;18.10;48.19
54850;BME280;47660;51.334;12.396;2023-05-08T06:44:55;101079.38;;;18.10;48.24
54850;BME280;47660;51.334;12.396;2023-05-08T06:47:21;101094.47;;;18.01;48.89
54850;BME280;47660;51.334;12.396;2023-05-08T06:49:46;101080.25;;;18.74;47.18
54850;BME280;47660;51.334;12.396;2023-05-08T06:52:11;101082.78;;;18.76;46.99
54850;BME280;47660;51.334;12.396;2023-05-08T06:54:37;101080.06;;;18.45;47.23
54850;BME280;47660;51.334;12.396;2023-05-08T06:57:12;101074.91;;;19.46;45.76
54850;BME280;47660;51.334;12.396;2023-05-08T06:59:41;101076.09;;;18.91;46.38
54850;BME280;47660;51.334;12.396;2023-05-08T07:02:06;101074.97;;;20.44;43.51
54850;BME280;47660;51.334;12.396;2023-05-08T07:04:34;101080.34;;;19.85;44.37
54850;BME280;47660;51.334;12.396;2023-05-08T07:06:59;101079.63;;;19.73;44.17
54850;BME280;47660;51.334;12.396;2023-05-08T07:09:25;101079.97;;;20.10;43.81
54850;BME280;47660;51.334;12.396;2023-05-08T07:11:50;101076.38;;;20.58;42.88
54850;BME280;47660;51.334;12.396;2023-05-08T07:14:18;101074.19;;;19.44;44.61
54850;BME280;47660;51.334;12.396;2023-05-08T07:16:44;101080.47;;;19.13;44.92
54850;BME280;47660;51.334;12.396;2023-05-08T07:19:10;101076.66;;;19.86;44.47
54850;BME280;47660;51.334;12.396;2023-05-08T07:21:35;101084.44;;;19.70;44.22
54850;BME280;47660;51.334;12.396;2023-05-08T07:24:01;101083.53;;;20.20;42.99
54850;BME280;47660;51.334;12.396;2023-05-08T07:26:29;101082.09;;;20.45;42.46
54850;BME280;47660;51.334;12.396;2023-05-08T07:28:54;101080.84;;;19.40;44.43
54850;BME280;47660;51.334;12.396;2023-05-08T07:31:20;101076.63;;;19.57;44.31
54850;BME280;47660;51.334;12.396;2023-05-08T07:33:48;101083.25;;;19.43;44.54
54850;BME280;47660;51.334;12.396;2023-05-08T07:36:13;101077.88;;;19.43;44.49
54850;BME280;47660;51.334;12.396;2023-05-08T07:38:39;101082.66;;;19.29;45.04
54850;BME280;47660;51.334;12.396;2023-05-08T07:41:04;101083.78;;;20.37;42.92
54850;BME280;47660;51.334;12.396;2023-05-08T07:43:31;101070.28;;;21.04;42.46
54850;BME280;47660;51.334;12.396;2023-05-08T07:45:59;101085.16;;;20.70;43.43
54850;BME280;47660;51.334;12.396;2023-05-08T07:48:27;101081.22;;;20.25;43.28
54850;BME280;47660;51.334;12.396;2023-05-08T07:50:55;101079.53;;;20.24;43.35
54850;BME280;47660;51.334;12.396;2023-05-08T07:53:20;101077.81;;;20.43;42.70
54850;BME280;47660;51.334;12.396;2023-05-08T07:55:46;101085.19;;;20.51;43.31
54850;BME280;47660;51.334;12.396;2023-05-08T07:58:11;101076.78;;;21.39;42.33
54850;BME280;47660;51.334;12.396;2023-05-08T08:00:36;101077.47;;;20.75;42.93
54850;BME280;47660;51.334;12.396;2023-05-08T08:03:05;101076.13;;;20.32;44.14
54850;BME280;47660;51.334;12.396;2023-05-08T08:05:33;101072.56;;;21.83;42.56
54850;BME280;47660;51.334;12.396;2023-05-08T08:08:01;101070.59;;;21.57;41.65
54850;BME280;47660;51.334;12.396;2023-05-08T08:10:26;101077.13;;;21.54;41.73
54850;BME280;47660;51.334;12.396;2023-05-08T08:12:52;101081.63;;;21.07;42.61
54850;BME280;47660;51.334;12.396;2023-05-08T08:15:17;101076.03;;;20.91;42.77
54850;BME280;47660;51.334;12.396;2023-05-08T08:17:46;101074.66;;;21.89;41.48
54850;BME280;47660;51.334;12.396;2023-05-08T08:20:13;101080.59;;;20.81;42.92
54850;BME280;47660;51.334;12.396;2023-05-08T08:22:41;101078.16;;;20.87;42.54
54850;BME280;47660;51.334;12.396;2023-05-08T08:25:09;101067.31;;;21.99;41.54
54850;BME280;47660;51.334;12.396;2023-05-08T08:27:35;101073.03;;;21.22;42.41
54850;BME280;47660;51.334;12.396;2023-05-08T08:30:00;101078.66;;;21.66;41.59
54850;BME280;47660;51.334;12.396;2023-05-08T08:32:29;101071.50;;;21.47;42.13
54850;BME280;47660;51.334;12.396;2023-05-08T08:34:54;101068.69;;;21.39;41.99
54850;BME280;47660;51.334;12.396;2023-05-08T08:37:23;101081.09;;;21.60;42.74
54850;BME280;47660;51.334;12.396;2023-05-08T08:39:50;101073.34;;;21.75;41.86
54850;BME280;47660;51.334;12.396;2023-05-08T08:42:15;101081.44;;;22.29;41.06
54850;BME280;47660;51.334;12.396;2023-05-08T08:44:41;101082.44;;;22.46;41.16
54850;BME280;47660;51.334;12.396;2023-05-08T08:47:09;101088.41;;;21.95;41.89
54850;BME280;47660;51.334;12.396;2023-05-08T08:49:44;101076.78;;;22.39;41.60
54850;BME280;47660;51.334;12.396;2023-05-08T08:55:01;101078.03;;;22.27;41.75
54850;BME280;47660;51.334;12.396;2023-05-08T08:57:33;101075.00;;;21.58;43.36
54850;BME280;47660;51.334;12.396;2023-05-08T09:00:02;101081.16;;;21.96;42.48
54850;BME280;47660;51.334;12.396;2023-05-08T09:02:30;101073.75;;;23.22;40.39
54850;BME280;47660;51.334;12.396;2023-05-08T09:04:56;101077.97;;;22.19;42.02
54850;BME280;47660;51.334;12.396;2023-05-08T09:07:22;101074.66;;;21.71;42.62
54850;BME280;47660;51.334;12.396;2023-05-08T09:09:51;101069.88;;;22.98;41.34
54850;BME280;47660;51.334;12.396;2023-05-08T09:12:17;101069.03;;;22.63;40.58
54850;BME280;47660;51.334;12.396;2023-05-08T09:14:44;101060.44;;;22.76;41.06
54850;BME280;47660;51.334;12.396;2023-05-08T09:17:10;101067.06;;;22.47;40.96
54850;BME280;47660;51.334;12.396;2023-05-08T09:19:38;101068.59;;;22.31;41.49
54850;BME280;47660;51.334;12.396;2023-05-08T09:22:04;101070.91;;;22.26;40.95
54850;BME280;47660;51.334;12.396;2023-05-08T09:25:08;101064.72;;;22.78;40.29
54850;BME280;47660;51.334;12.396;2023-05-08T09:27:33;101076.03;;;22.11;41.03
54850;BME280;47660;51.334;12.396;2023-05-08T09:30:08;101074.44;;;23.83;39.05
54850;BME280;47660;51.334;12.396;2023-05-08T09:32:36;101075.56;;;22.52;40.35
54850;BME280;47660;51.334;12.396;2023-05-08T09:35:03;101070.88;;;23.23;40.10
54850;BME280;47660;51.334;12.396;2023-05-08T09:37:31;101074.22;;;22.82;40.01
54850;BME280;47660;51.334;12.396;2023-05-08T09:40:18;101071.34;;;23.70;38.18
54850;BME280;47660;51.334;12.396;2023-05-08T09:42:47;101071.50;;;23.60;39.26
54850;BME280;47660;51.334;12.396;2023-05-08T09:45:27;101070.31;;;23.54;38.64
54850;BME280;47660;51.334;12.396;2023-05-08T09:47:56;101067.84;;;23.78;38.65
54850;BME280;47660;51.334;12.396;2023-05-08T09:50:21;101068.63;;;22.84;39.44
54850;BME280;47660;51.334;12.396;2023-05-08T09:52:48;101080.66;;;23.16;39.62
54850;BME280;47660;51.334;12.396;2023-05-08T09:55:14;101069.91;;;22.45;39.58
54850;BME280;47660;51.334;12.396;2023-05-08T09:57:54;101049.72;;;25.09;36.14
54850;BME280;47660;51.334;12.396;2023-05-08T10:00:21;101063.63;;;23.24;38.34
54850;BME280;47660;51.334;12.396;2023-05-08T10:03:13;101065.84;;;24.29;36.97
54850;BME280;47660;51.334;12.396;2023-05-08T10:05:38;101070.28;;;22.77;38.46
54850;BME280;47660;51.334;12.396;2023-05-08T10:08:23;101067.88;;;24.36;36.85
54850;BME280;47660;51.334;12.396;2023-05-08T10:10:51;101076.50;;;23.89;36.76
54850;BME280;47660;51.334;12.396;2023-05-08T10:13:17;101066.41;;;23.57;37.22
54850;BME280;47660;51.334;12.396;2023-05-08T10:15:51;101063.69;;;23.49;37.64
54850;BME280;47660;51.334;12.396;2023-05-08T10:18:19;101061.84;;;23.57;37.38
54850;BME280;47660;51.334;12.396;2023-05-08T10:20:49;101065.09;;;23.69;36.74
54850;BME280;47660;51.334;12.396;2023-05-08T10:23:15;101064.41;;;23.67;36.65
54850;BME280;47660;51.334;12.396;2023-05-08T10:25:51;101064.78;;;23.89;36.63
54850;BME280;47660;51.334;12.396;2023-05-08T10:28:30;101063.78;;;24.40;35.83
54850;BME280;47660;51.334;12.396;2023-05-08T10:31:02;101050.38;;;24.38;36.19
54850;BME280;47660;51.334;12.396;2023-05-08T10:33:30;101055.63;;;24.48;35.98
54850;BME280;47660;51.334;12.396;2023-05-08T10:35:58;101055.91;;;23.62;36.35
54850;BME280;47660;51.334;12.396;2023-05-08T10:38:24;101055.22;;;23.52;35.95
54850;BME280;47660;51.334;12.396;2023-05-08T10:40:50;101052.28;;;24.29;35.27
54850;BME280;47660;51.334;12.396;2023-05-08T10:43:23;101051.75;;;24.26;35.72
54850;BME280;47660;51.334;12.396;2023-05-08T10:45:49;101050.00;;;24.58;35.04
54850;BME280;47660;51.334;12.396;2023-05-08T10:53:45;101053.09;;;23.97;35.78
54850;BME280;47660;51.334;12.396;2023-05-08T10:56:13;101045.81;;;24.14;35.02
54850;BME280;47660;51.334;12.396;2023-05-08T10:58:38;101048.34;;;24.32;35.27
54850;BME280;47660;51.334;12.396;2023-05-08T11:03:43;101042.53;;;24.76;34.48
54850;BME280;47660;51.334;12.396;2023-05-08T11:06:09;101041.28;;;24.87;34.06
54850;BME280;47660;51.334;12.396;2023-05-08T11:08:47;101028.25;;;24.74;34.04
54850;BME280;47660;51.334;12.396;2023-05-08T11:11:23;101027.66;;;25.04;33.75
54850;BME280;47660;51.334;12.396;2023-05-08T11:13:58;101038.81;;;25.17;32.87
54850;BME280;47660;51.334;12.396;2023-05-08T11:19:24;101034.78;;;24.15;33.93
54850;BME280;47660;51.334;12.396;2023-05-08T11:22:15;101022.16;;;25.52;32.20
54850;BME280;47660;51.334;12.396;2023-05-08T11:24:55;101023.41;;;25.64;32.11
54850;BME280;47660;51.334;12.396;2023-05-08T11:35:58;101020.53;;;24.95;32.53
54850;BME280;47660;51.334;12.396;2023-05-08T11:38:32;101011.31;;;25.44;32.03
54850;BME280;47660;51.334;12.396;2023-05-08T11:46:13;101007.88;;;25.97;31.14
54850;BME280;47660;51.334;12.396;2023-05-08T11:48:41;101001.50;;;26.43;30.48
54850;BME280;47660;51.334;12.396;2023-05-08T11:51:07;101007.91;;;25.73;30.66
54850;BME280;47660;51.334;12.396;2023-05-08T11:53:34;101011.84;;;25.86;30.87
54850;BME280;47660;51.334;12.396;2023-05-08T11:56:00;101011.31;;;25.04;31.42
54850;BME280;47660;51.334;12.396;2023-05-08T11:58:26;100998.09;;;25.32;31.11
54850;BME280;47660;51.334;12.396;2023-05-08T12:00:51;100996.38;;;25.86;29.98
54850;BME280;47660;51.334;12.396;2023-05-08T12:03:21;100994.56;;;25.78;30.24
54850;BME280;47660;51.334;12.396;2023-05-08T12:05:48;100986.16;;;27.53;28.20
54850;BME280;47660;51.334;12.396;2023-05-08T12:08:18;100997.50;;;26.15;29.28
54850;BME280;47660;51.334;12.396;2023-05-08T12:13:20;100991.09;;;26.61;29.22
54850;BME280;47660;51.334;12.396;2023-05-08T12:15:48;100983.78;;;27.13;28.58
54850;BME280;47660;51.334;12.396;2023-05-08T12:18:15;100984.19;;;25.27;30.90
54850;BME280;47660;51.334;12.396;2023-05-08T12:20:41;100994.56;;;25.55;29.39
54850;BME280;47660;51.334;12.396;2023-05-08T12:23:07;100987.31;;;26.92;28.29
54850;BME280;47660;51.334;12.396;2023-05-08T12:25:36;100982.22;;;28.06;27.15
54850;BME280;47660;51.334;12.396;2023-05-08T12:28:13;100976.66;;;26.22;29.01
54850;BME280;47660;51.334;12.396;2023-05-08T12:30:38;100973.69;;;26.92;28.13
54850;BME280;47660;51.334;12.396;2023-05-08T12:33:08;100974.47;;;27.23;28.54
54850;BME280;47660;51.334;12.396;2023-05-08T12:35:37;100978.25;;;27.43;27.74
54850;BME280;47660;51.334;12.396;2023-05-08T12:38:05;100981.78;;;27.81;26.79
54850;BME280;47660;51.334;12.396;2023-05-08T12:40:34;100970.47;;;27.25;27.21
54850;BME280;47660;51.334;12.396;2023-05-08T12:43:05;100974.13;;;27.91;26.81
54850;BME280;47660;51.334;12.396;2023-05-08T12:45:38;100968.97;;;28.10;26.66
54850;BME280;47660;51.334;12.396;2023-05-08T12:50:34;100963.66;;;27.51;26.53
54850;BME280;47660;51.334;12.396;2023-05-08T12:53:05;100964.09;;;28.62;25.82
54850;BME280;47660;51.334;12.396;2023-05-08T12:55:33;100961.50;;;29.51;24.72
54850;BME280;47660;51.334;12.396;2023-05-08T12:58:11;100956.72;;;29.11;24.33
54850;BME280;47660;51.334;12.396;2023-05-08T13:00:46;100943.28;;;29.23;24.34
54850;BME280;47660;51.334;12.396;2023-05-08T13:03:20;100944.25;;;28.88;24.52
54850;BME280;47660;51.334;12.396;2023-05-08T13:05:45;100956.50;;;28.22;24.64
54850;BME280;47660;51.334;12.396;2023-05-08T13:08:13;100946.19;;;29.01;23.80
54850;BME280;47660;51.334;12.396;2023-05-08T13:10:54;100944.06;;;30.78;22.66
54850;BME280;47660;51.334;12.396;2023-05-08T13:13:25;100933.47;;;31.85;21.28
54850;BME280;47660;51.334;12.396;2023-05-08T13:15:53;100936.56;;;31.38;21.14
54850;BME280;47660;51.334;12.396;2023-05-08T13:18:21;100925.00;;;33.59;19.19
54850;BME280;47660;51.334;12.396;2023-05-08T13:20:50;100923.19;;;34.89;18.11
54850;BME280;47660;51.334;12.396;2023-05-08T13:23:21;100911.75;;;35.61;16.93
54850;BME280;47660;51.334;12.396;2023-05-08T13:25:49;100908.22;;;36.61;16.77
54850;BME280;47660;51.334;12.396;2023-05-08T13:28:16;100897.41;;;37.80;15.96
54850;BME280;47660;51.334;12.396;2023-05-08T13:30:42;100903.56;;;36.94;16.38
54850;BME280;47660;51.334;12.396;2023-05-08T13:33:09;100896.84;;;36.40;16.59
54850;BME280;47660;51.334;12.396;2023-05-08T13:35:35;100904.75;;;34.78;17.54
54850;BME280;47660;51.334;12.396;2023-05-08T13:38:01;100911.72;;;35.27;17.14
54850;BME280;47660;51.334;12.396;2023-05-08T13:40:27;100896.47;;;37.64;15.77